Aviation Digital Data Service (ADDS)

Output produced by METARs form (0646 UTC 28 November 2014)
found at http://www.aviationweather.gov/adds/metars/
 
KFIG 280609Z AUTO 28010KT 10SM FEW025 BKN031 BKN038 M02/M06 A3010 RMK AO2 T10221061
KFIG 280554Z AUTO 27010KT 10SM BKN025 BKN030 M02/M06 A3010 RMK AO2 UPB27E51 SLP209 P0000 60001 T10221061 11011 21028 58003
KFIG 280454Z AUTO 27008KT 10SM BKN019 OVC027 M02/M05 A3011 RMK AO2 SNE13 SLP212 P0000 T10221050 400061028
KFIG 280354Z AUTO 23005KT 6SM -SN BR BKN018 OVC041 M03/M05 A3011 RMK AO2 SNB20 SLP213 P0000 T10281050
KFIG 280254Z AUTO 28008G18KT 10SM OVC022 M02/M06 A3011 RMK AO2 UPB0158E07SNE0155B07E17 SLP214 P0000 60001 T10221056 53012
KFIG 280240Z AUTO 27009KT 10SM BKN022 OVC095 M02/M06 A3011 RMK AO2 UPB0158E07SNE0155B07E17 P0000 T10221056
KFIG 280205Z AUTO 27007G18KT 10SM UP FEW021 SCT030 OVC085 M02/M06 A3009 RMK AO2 UPB0158SNE0155 P0000 T10221056
KFIG 280154Z AUTO 27010G15KT 9SM -SN BKN021 BKN028 OVC085 M02/M05 A3009 RMK AO2 UPB40E42SNB39E40B42 SLP208 P0000 T10221050
KFIG 280135Z AUTO 27009KT 10SM BKN021 BKN029 OVC080 M02/M05 A3009 RMK AO2 T10171050
KFIG 280054Z AUTO 29007KT 9SM SCT031 OVC080 M02/M05 A3008 RMK AO2 SNE51 SLP205 P0001 T10171050
KFIG 272354Z AUTO 28011KT 7SM -SN BKN033 OVC070 M01/M03 A3007 RMK AO2 SNE16B35 SLP200 P0000 60000 T10111033 10006 21011 51016
KFIG 272316Z AUTO 29008KT 9SM SCT017 BKN042 OVC075 M01/M03 A3006 RMK AO2 SNE16 P0000 T10061033
KFIG 272309Z AUTO 28006KT 3SM -SN BR BKN017 OVC040 M01/M02 A3006 RMK AO2 P0000 T10111022
KFIG 272254Z AUTO 27007KT 1 1/2SM -SN BR BKN019 OVC038 M01/M02 A3006 RMK AO2 SLP196 P0000 T10111022
KFIG 272244Z AUTO 28007KT 1 3/4SM -SN BR OVC021 M01/M03 A3005 RMK AO2 P0000 T10111028
KFIG 272237Z AUTO 28006KT 2SM -SN BR OVC025 M01/M03 A3005 RMK AO2 P0000 T10061028
KFIG 272215Z AUTO 28006KT 3SM -SN BKN029 OVC060 M01/M03 A3005 RMK AO2 P0000 T10061033
KFIG 272154Z AUTO 27005KT 7SM -SN OVC060 00/M03 A3004 RMK AO2 SNB28 SLP189 P0000 T00001028
KFIG 272054Z AUTO 26004KT 10SM SCT027 SCT035 OVC065 00/M03 A3002 RMK AO2 SLP182 60000 T00001033 53008
KFIG 271954Z AUTO 32005KT 10SM OVC060 01/M03 A3000 RMK AO2 SLP176 T00061033
KFIG 271854Z AUTO 34004KT 10SM FEW025 OVC065 00/M02 A3000 RMK AO2 SNE17B27E45 SLP176 P0000 T00001022
KFIG 271823Z AUTO 33005KT 10SM FEW021 BKN033 OVC042 00/M02 A3000 RMK AO2 SNE17 P0000 T00001022
KFIG 271813Z AUTO 31005KT 6SM -SN BR FEW018 BKN022 OVC037 00/M02 A3000 RMK AO2 P0000 T00001017
KFIG 271754Z AUTO 32005KT 2 1/2SM -SN BR FEW009 BKN018 OVC025 00/M02 A3000 RMK AO2 SNE1655B32 SLP174 P0001 60001 I6000 T00001017 10000 21011 56005
KFIG 271654Z AUTO 00000KT 5SM -SN BR FEW004 OVC023 00/M01 A3000 RMK AO2 SLP174 P0000 T00001011
KFIG 271630Z AUTO 17003KT 4SM -SN BR FEW005 BKN028 OVC044 M01/M02 A3000 RMK AO2 P0000 T10061017
KFIG 271609Z AUTO 18003KT 3SM -SN BR FEW006 BKN040 OVC047 M01/M02 A3001 RMK AO2 P0000 T10061017
KFIG 271554Z AUTO 00000KT 5SM -SN BR FEW025 BKN049 OVC060 M01/M02 A3001 RMK AO2 SLP178 P0000 T10061017
KFIG 271532Z AUTO 00000KT 3SM -SN BR BKN037 BKN047 OVC060 M01/M02 A3001 RMK AO2 P0000 T10061017
KFIG 271524Z AUTO 00000KT 1 3/4SM -SN BR BKN035 OVC045 M01/M02 A3001 RMK AO2 P0000 T10061022
KFIG 271508Z AUTO 00000KT 5SM -SN BR SCT022 SCT029 OVC035 M01/M02 A3001 RMK AO2 P0000 T10111022
KFIG 271454Z AUTO 00000KT 2SM -SN BR BKN022 OVC029 M01/M03 A3001 RMK AO2 SLP179 P0000 60000 I3000 T10111028 51012
KFIG 271409Z AUTO 35003KT 5SM -SN BR FEW023 BKN029 OVC047 M01/M03 A3000 RMK AO2 P0000 T10111028
KFIG 271354Z AUTO 00000KT 8SM -SN FEW022 OVC047 M01/M03 A3000 RMK AO2 UPE17SNB50 SLP177 P0000 T10111028
KFIG 271343Z AUTO 00000KT 9SM SCT027 OVC047 M01/M02 A3000 RMK AO2 UPE17 P0000 T10111022
KFIG 271254Z AUTO 00000KT 6SM UP BR BKN019 OVC026 M01/M02 A2999 RMK AO2 UPB1158 SLP173 P0000 I1000 T10111022
KFIG 271154Z AUTO 00000KT 10SM SCT014 OVC021 M01/M02 A2998 RMK AO2 SLP167 70011 T10111022 11011 21017 53007
KFIG 271054Z AUTO 35003KT 9SM FEW018 BKN029 OVC035 M01/M02 A2996 RMK AO2 SLP160 T10111022
KFIG 270954Z AUTO 00000KT 10SM OVC019 M01/M02 A2997 RMK AO2 SLP163 T10111022
KFIG 270854Z AUTO 00000KT 9SM BKN024 OVC029 M01/M02 A2995 RMK AO2 SLP159 T10111022 58004
KFIG 270816Z AUTO 00000KT 10SM OVC028 M01/M02 A2996 RMK AO2 T10111022
KFIG 270754Z AUTO 00000KT 10SM FEW026 OVC032 M02/M02 A2996 RMK AO2 SLP162 T10171022
KFIG 270654Z AUTO 34003KT 10SM OVC030 M01/M02 A2996 RMK AO2 SLP162 T10111022
KFIG 270625Z AUTO 00000KT 10SM OVC029 M01/M02 A2996 RMK AO2 T10061022
KFIG 270554Z AUTO 00000KT 10SM OVC031 M01/M02 A2997 RMK AO2 SLP163 60000 T10111022 11006 21011 53000
KFIG 270454Z AUTO 00000KT 10SM OVC032 M01/M02 A2996 RMK AO2 SLP162 T10061022 400001017
KFIG 270354Z AUTO 00000KT 10SM OVC032 M01/M02 A2996 RMK AO2 SLP161 T10111022
KFIG 270311Z AUTO 28003KT 10SM OVC030 M01/M02 A2997 RMK AO2 T10061022
KFIG 270254Z AUTO 27003KT 10SM OVC029 M01/M02 A2997 RMK AO2 SLP163 60000 T10061022 55001
KFIG 270154Z AUTO 00000KT 10SM OVC024 M01/M02 A2996 RMK AO2 SNE13 SLP162 P0000 T10111022
KFIG 270132Z AUTO 29003KT 10SM BKN024 OVC044 M01/M02 A2996 RMK AO2 SNE13 P0000 T10111017
KFIG 270054Z AUTO 00000KT 4SM -SN BR FEW026 SCT040 OVC060 M01/M02 A2997 RMK AO2 SLP163 P0000 T10061022
KFIG 270023Z AUTO 00000KT 4SM -SN BR FEW004 FEW013 OVC055 M01/M01 A2997 RMK AO2 P0000 T10061011
KFIG 270014Z AUTO 00000KT 3SM -SN BR FEW004 BKN024 OVC050 M01/M02 A2997 RMK AO2 P0000 T10111017
KFIG 270011Z AUTO 00000KT 2 1/2SM -SN BR FEW004 BKN013 OVC050 M01/M02 A2996 RMK AO2 P0000 T10111017
KFIG 262354Z AUTO 00000KT 2SM -SN BR BKN010 OVC035 M01/M01 A2997 RMK AO2 SLP164 P0000 60007 T10061011 10000 21006 58001
KFIG 262345Z AUTO 00000KT 2 1/2SM -SN BR BKN011 OVC048 M01/M01 A2997 RMK AO2 P0000 T10061011
KFIG 262254Z AUTO 03003KT 3SM -SN BR OVC038 M01/M02 A2997 RMK AO2 SLP166 P0000 T10061017
KFIG 262206Z AUTO 00000KT 3SM -SN BR OVC037 M01/M01 A2997 RMK AO2 P0000 T10061011
KFIG 262154Z AUTO 03003KT 2 1/2SM -SN BR OVC035 M01/M01 A2997 RMK AO2 SLP166 P0001 T10061011
KFIG 262141Z AUTO 36004KT 2SM -SN BR OVC031 M01/M01 A2997 RMK AO2 P0000 T10061011
KFIG 262054Z AUTO 36004KT 1SM -SN BR FEW005 OVC023 00/M01 A2998 RMK AO2 SLP168 P0002 60006 T00001006 55011
KFIG 261954Z AUTO 02004KT 1 3/4SM -SN BR SCT004 OVC027 00/M01 A2998 RMK AO2 SLP166 P0001 T00001011
KFIG 261933Z AUTO 00000KT 1SM -SN BR BKN003 OVC018 00/M01 A2998 RMK AO2 P0001 T00001011
KFIG 261924Z AUTO 03003KT 1SM -SN BR SCT005 OVC016 00/M01 A2998 RMK AO2 P0001 T00001011
KFIG 261912Z AUTO 03004KT 3/4SM -SN BR SCT003 OVC014 M01/M01 A2998 RMK AO2 P0001 T10061011
KFIG 261854Z AUTO 01005KT 3/4SM -SN BR BKN004 OVC012 00/M01 A2997 RMK AO2 SLP166 P0003 T00001011